sensor_id;sensor_type;location;lat;lon;timestamp;P1;durP1;ratioP1;P2;durP2;ratioP2
23185;SDS011;11761;51.324;4.590;2022-12-10T00:01:31;37.45;;;14.45;;
23185;SDS011;11761;51.324;4.590;2022-12-10T00:03:58;43.80;;;13.85;;
23185;SDS011;11761;51.324;4.590;2022-12-10T00:06:25;37.60;;;13.13;;
23185;SDS011;11761;51.324;4.590;2022-12-10T00:08:53;37.88;;;11.77;;
23185;SDS011;11761;51.324;4.590;2022-12-10T00:11:20;39.60;;;12.63;;
23185;SDS011;11761;51.324;4.590;2022-12-10T00:13:47;44.55;;;12.18;;
23185;SDS011;11761;51.324;4.590;2022-12-10T00:16:15;36.60;;;12.05;;
23185;SDS011;11761;51.324;4.590;2022-12-10T00:18:43;46.08;;;12.43;;
23185;SDS011;11761;51.324;4.590;2022-12-10T00:21:11;40.42;;;13.57;;
23185;SDS011;11761;51.324;4.590;2022-12-10T00:23:39;47.03;;;14.80;;
23185;SDS011;11761;51.324;4.590;2022-12-10T00:26:10;37.75;;;12.35;;
23185;SDS011;11761;51.324;4.590;2022-12-10T00:28:45;37.67;;;13.65;;
23185;SDS011;11761;51.324;4.590;2022-12-10T00:31:13;39.53;;;12.90;;
23185;SDS011;11761;51.324;4.590;2022-12-10T00:33:41;54.70;;;15.63;;
23185;SDS011;11761;51.324;4.590;2022-12-10T00:38:39;49.20;;;12.57;;
23185;SDS011;11761;51.324;4.590;2022-12-10T00:41:06;39.53;;;11.70;;
23185;SDS011;11761;51.324;4.590;2022-12-10T00:43:33;38.97;;;12.23;;
23185;SDS011;11761;51.324;4.590;2022-12-10T00:46:00;36.47;;;11.93;;
23185;SDS011;11761;51.324;4.590;2022-12-10T00:48:26;45.20;;;13.20;;
23185;SDS011;11761;51.324;4.590;2022-12-10T00:51:00;44.97;;;13.45;;
23185;SDS011;11761;51.324;4.590;2022-12-10T00:53:26;45.05;;;12.13;;
23185;SDS011;11761;51.324;4.590;2022-12-10T00:55:54;41.63;;;13.10;;
23185;SDS011;11761;51.324;4.590;2022-12-10T00:58:20;45.22;;;13.18;;
23185;SDS011;11761;51.324;4.590;2022-12-10T01:00:47;42.88;;;11.60;;
23185;SDS011;11761;51.324;4.590;2022-12-10T01:03:14;41.03;;;12.75;;
23185;SDS011;11761;51.324;4.590;2022-12-10T01:05:40;43.90;;;12.57;;
23185;SDS011;11761;51.324;4.590;2022-12-10T01:08:07;42.45;;;12.23;;
23185;SDS011;11761;51.324;4.590;2022-12-10T01:10:33;40.78;;;12.00;;
23185;SDS011;11761;51.324;4.590;2022-12-10T01:12:59;40.15;;;11.57;;
23185;SDS011;11761;51.324;4.590;2022-12-10T01:15:26;43.83;;;11.18;;
23185;SDS011;11761;51.324;4.590;2022-12-10T01:17:52;46.78;;;12.38;;
23185;SDS011;11761;51.324;4.590;2022-12-10T01:20:18;41.28;;;12.23;;
23185;SDS011;11761;51.324;4.590;2022-12-10T01:22:44;38.72;;;11.20;;
23185;SDS011;11761;51.324;4.590;2022-12-10T01:25:10;33.13;;;11.13;;
23185;SDS011;11761;51.324;4.590;2022-12-10T01:27:36;47.88;;;13.65;;
23185;SDS011;11761;51.324;4.590;2022-12-10T01:30:02;43.80;;;11.48;;
23185;SDS011;11761;51.324;4.590;2022-12-10T01:32:29;55.63;;;13.13;;
23185;SDS011;11761;51.324;4.590;2022-12-10T01:34:55;43.58;;;12.13;;
23185;SDS011;11761;51.324;4.590;2022-12-10T01:37:21;51.65;;;14.73;;
23185;SDS011;11761;51.324;4.590;2022-12-10T01:39:47;50.38;;;12.10;;
23185;SDS011;11761;51.324;4.590;2022-12-10T01:42:14;44.80;;;13.18;;
23185;SDS011;11761;51.324;4.590;2022-12-10T01:47:06;37.63;;;12.27;;
23185;SDS011;11761;51.324;4.590;2022-12-10T01:49:33;27.25;;;9.02;;
23185;SDS011;11761;51.324;4.590;2022-12-10T01:52:02;45.95;;;10.95;;
23185;SDS011;11761;51.324;4.590;2022-12-10T01:54:33;44.92;;;11.52;;
23185;SDS011;11761;51.324;4.590;2022-12-10T01:57:06;40.90;;;12.07;;
23185;SDS011;11761;51.324;4.590;2022-12-10T01:59:33;47.63;;;11.95;;
23185;SDS011;11761;51.324;4.590;2022-12-10T02:04:37;39.22;;;13.10;;
23185;SDS011;11761;51.324;4.590;2022-12-10T02:12:39;41.33;;;13.23;;
23185;SDS011;11761;51.324;4.590;2022-12-10T02:15:32;48.13;;;11.68;;
23185;SDS011;11761;51.324;4.590;2022-12-10T02:18:09;46.53;;;11.27;;
23185;SDS011;11761;51.324;4.590;2022-12-10T02:20:53;39.65;;;10.55;;
23185;SDS011;11761;51.324;4.590;2022-12-10T02:23:31;46.33;;;10.45;;
23185;SDS011;11761;51.324;4.590;2022-12-10T02:31:31;42.88;;;12.13;;
23185;SDS011;11761;51.324;4.590;2022-12-10T02:33:59;46.97;;;11.35;;
23185;SDS011;11761;51.324;4.590;2022-12-10T02:36:35;37.28;;;11.43;;
23185;SDS011;11761;51.324;4.590;2022-12-10T02:39:05;44.00;;;13.25;;
23185;SDS011;11761;51.324;4.590;2022-12-10T02:41:47;35.30;;;12.10;;
23185;SDS011;11761;51.324;4.590;2022-12-10T02:44:18;47.63;;;12.13;;
23185;SDS011;11761;51.324;4.590;2022-12-10T02:46:47;39.60;;;12.27;;
23185;SDS011;11761;51.324;4.590;2022-12-10T02:49:15;46.53;;;12.82;;
23185;SDS011;11761;51.324;4.590;2022-12-10T02:51:42;36.40;;;12.55;;
23185;SDS011;11761;51.324;4.590;2022-12-10T02:55:09;36.38;;;12.70;;
23185;SDS011;11761;51.324;4.590;2022-12-10T02:57:50;47.55;;;13.00;;
23185;SDS011;11761;51.324;4.590;2022-12-10T03:00:19;47.78;;;13.70;;
23185;SDS011;11761;51.324;4.590;2022-12-10T03:05:21;38.88;;;11.90;;
23185;SDS011;11761;51.324;4.590;2022-12-10T03:08:01;50.67;;;12.23;;
23185;SDS011;11761;51.324;4.590;2022-12-10T03:11:01;45.15;;;12.43;;
23185;SDS011;11761;51.324;4.590;2022-12-10T03:13:43;37.83;;;12.23;;
23185;SDS011;11761;51.324;4.590;2022-12-10T03:16:24;43.53;;;13.05;;
23185;SDS011;11761;51.324;4.590;2022-12-10T03:18:56;44.45;;;12.43;;
23185;SDS011;11761;51.324;4.590;2022-12-10T03:21:25;48.95;;;14.20;;
23185;SDS011;11761;51.324;4.590;2022-12-10T03:23:55;46.97;;;12.43;;
23185;SDS011;11761;51.324;4.590;2022-12-10T03:26:21;49.17;;;13.90;;
23185;SDS011;11761;51.324;4.590;2022-12-10T03:28:50;34.40;;;12.20;;
23185;SDS011;11761;51.324;4.590;2022-12-10T03:31:27;44.97;;;12.10;;
23185;SDS011;11761;51.324;4.590;2022-12-10T03:33:54;34.83;;;11.05;;
23185;SDS011;11761;51.324;4.590;2022-12-10T03:36:21;42.30;;;11.95;;
23185;SDS011;11761;51.324;4.590;2022-12-10T03:38:48;47.70;;;13.50;;
23185;SDS011;11761;51.324;4.590;2022-12-10T03:41:15;47.83;;;13.05;;
23185;SDS011;11761;51.324;4.590;2022-12-10T03:43:51;49.25;;;12.70;;
23185;SDS011;11761;51.324;4.590;2022-12-10T03:46:19;39.78;;;13.25;;
23185;SDS011;11761;51.324;4.590;2022-12-10T03:48:46;59.50;;;14.63;;
23185;SDS011;11761;51.324;4.590;2022-12-10T03:51:12;46.78;;;12.20;;
23185;SDS011;11761;51.324;4.590;2022-12-10T03:53:38;44.72;;;11.85;;
23185;SDS011;11761;51.324;4.590;2022-12-10T03:56:04;50.15;;;13.50;;
23185;SDS011;11761;51.324;4.590;2022-12-10T03:58:31;51.65;;;13.30;;
23185;SDS011;11761;51.324;4.590;2022-12-10T04:00:57;43.65;;;11.82;;
23185;SDS011;11761;51.324;4.590;2022-12-10T04:03:23;49.92;;;12.75;;
23185;SDS011;11761;51.324;4.590;2022-12-10T04:05:49;50.97;;;13.65;;
23185;SDS011;11761;51.324;4.590;2022-12-10T04:08:15;41.33;;;11.52;;
23185;SDS011;11761;51.324;4.590;2022-12-10T04:10:42;44.65;;;12.43;;
23185;SDS011;11761;51.324;4.590;2022-12-10T04:13:08;64.53;;;15.48;;
23185;SDS011;11761;51.324;4.590;2022-12-10T04:15:52;51.15;;;12.43;;
23185;SDS011;11761;51.324;4.590;2022-12-10T04:18:37;49.95;;;11.73;;
23185;SDS011;11761;51.324;4.590;2022-12-10T04:21:03;47.65;;;12.63;;
23185;SDS011;11761;51.324;4.590;2022-12-10T04:23:48;47.28;;;13.82;;
23185;SDS011;11761;51.324;4.590;2022-12-10T04:26:33;43.70;;;12.15;;
23185;SDS011;11761;51.324;4.590;2022-12-10T04:29:24;33.92;;;11.00;;
23185;SDS011;11761;51.324;4.590;2022-12-10T04:31:54;44.70;;;11.43;;
23185;SDS011;11761;51.324;4.590;2022-12-10T04:34:22;43.30;;;11.65;;
23185;SDS011;11761;51.324;4.590;2022-12-10T04:36:49;60.83;;;13.05;;
23185;SDS011;11761;51.324;4.590;2022-12-10T04:39:15;46.15;;;12.10;;
23185;SDS011;11761;51.324;4.590;2022-12-10T04:41:42;46.15;;;11.57;;
23185;SDS011;11761;51.324;4.590;2022-12-10T04:44:10;54.40;;;12.27;;
23185;SDS011;11761;51.324;4.590;2022-12-10T04:46:36;51.42;;;12.13;;
23185;SDS011;11761;51.324;4.590;2022-12-10T04:49:03;51.42;;;11.50;;
23185;SDS011;11761;51.324;4.590;2022-12-10T04:51:30;49.10;;;11.98;;
23185;SDS011;11761;51.324;4.590;2022-12-10T04:53:57;44.28;;;10.63;;
23185;SDS011;11761;51.324;4.590;2022-12-10T04:56:24;47.90;;;11.13;;
23185;SDS011;11761;51.324;4.590;2022-12-10T04:58:50;51.97;;;10.65;;
23185;SDS011;11761;51.324;4.590;2022-12-10T05:01:16;44.97;;;12.38;;
23185;SDS011;11761;51.324;4.590;2022-12-10T05:03:44;36.35;;;10.07;;
23185;SDS011;11761;51.324;4.590;2022-12-10T05:06:13;42.63;;;10.55;;
23185;SDS011;11761;51.324;4.590;2022-12-10T05:08:42;33.97;;;9.35;;
23185;SDS011;11761;51.324;4.590;2022-12-10T05:11:13;39.35;;;10.30;;
23185;SDS011;11761;51.324;4.590;2022-12-10T05:13:43;47.72;;;12.00;;
23185;SDS011;11761;51.324;4.590;2022-12-10T05:16:11;44.00;;;10.40;;
23185;SDS011;11761;51.324;4.590;2022-12-10T05:18:39;46.83;;;10.93;;
23185;SDS011;11761;51.324;4.590;2022-12-10T05:21:06;39.47;;;10.75;;
23185;SDS011;11761;51.324;4.590;2022-12-10T05:23:36;44.03;;;10.55;;
23185;SDS011;11761;51.324;4.590;2022-12-10T05:28:33;38.10;;;10.38;;
23185;SDS011;11761;51.324;4.590;2022-12-10T05:31:03;37.03;;;9.32;;
23185;SDS011;11761;51.324;4.590;2022-12-10T05:33:30;37.92;;;10.27;;
23185;SDS011;11761;51.324;4.590;2022-12-10T05:36:00;38.05;;;9.52;;
23185;SDS011;11761;51.324;4.590;2022-12-10T05:38:29;39.60;;;9.85;;
23185;SDS011;11761;51.324;4.590;2022-12-10T05:41:00;44.20;;;11.02;;
23185;SDS011;11761;51.324;4.590;2022-12-10T05:43:30;42.65;;;10.48;;
23185;SDS011;11761;51.324;4.590;2022-12-10T05:46:00;35.42;;;11.45;;
23185;SDS011;11761;51.324;4.590;2022-12-10T05:48:27;39.60;;;10.70;;
23185;SDS011;11761;51.324;4.590;2022-12-10T05:50:53;43.75;;;10.93;;
23185;SDS011;11761;51.324;4.590;2022-12-10T05:53:19;50.00;;;11.00;;
23185;SDS011;11761;51.324;4.590;2022-12-10T05:55:46;42.38;;;9.88;;
23185;SDS011;11761;51.324;4.590;2022-12-10T05:58:12;38.80;;;10.88;;
23185;SDS011;11761;51.324;4.590;2022-12-10T06:00:39;40.45;;;9.60;;
23185;SDS011;11761;51.324;4.590;2022-12-10T06:03:05;42.47;;;10.85;;
23185;SDS011;11761;51.324;4.590;2022-12-10T06:05:36;32.72;;;8.80;;
23185;SDS011;11761;51.324;4.590;2022-12-10T06:08:03;34.42;;;8.98;;
23185;SDS011;11761;51.324;4.590;2022-12-10T06:10:30;41.17;;;8.93;;
23185;SDS011;11761;51.324;4.590;2022-12-10T06:12:56;36.00;;;11.15;;
23185;SDS011;11761;51.324;4.590;2022-12-10T06:15:22;46.00;;;11.65;;
23185;SDS011;11761;51.324;4.590;2022-12-10T06:17:48;32.38;;;9.73;;
23185;SDS011;11761;51.324;4.590;2022-12-10T06:20:14;34.80;;;9.65;;
23185;SDS011;11761;51.324;4.590;2022-12-10T06:22:41;44.65;;;10.15;;
23185;SDS011;11761;51.324;4.590;2022-12-10T06:25:07;38.65;;;8.95;;
23185;SDS011;11761;51.324;4.590;2022-12-10T06:27:33;34.83;;;9.30;;
23185;SDS011;11761;51.324;4.590;2022-12-10T06:29:59;31.13;;;7.20;;
23185;SDS011;11761;51.324;4.590;2022-12-10T06:32:26;49.20;;;10.00;;
23185;SDS011;11761;51.324;4.590;2022-12-10T06:34:52;44.20;;;10.82;;
23185;SDS011;11761;51.324;4.590;2022-12-10T06:37:18;40.92;;;10.32;;
23185;SDS011;11761;51.324;4.590;2022-12-10T06:39:44;33.75;;;9.52;;
23185;SDS011;11761;51.324;4.590;2022-12-10T06:42:10;44.33;;;8.45;;
23185;SDS011;11761;51.324;4.590;2022-12-10T06:44:37;32.42;;;9.98;;
23185;SDS011;11761;51.324;4.590;2022-12-10T06:47:03;28.27;;;8.98;;
23185;SDS011;11761;51.324;4.590;2022-12-10T06:49:29;48.65;;;9.25;;
23185;SDS011;11761;51.324;4.590;2022-12-10T06:51:55;40.88;;;10.30;;
23185;SDS011;11761;51.324;4.590;2022-12-10T06:54:21;33.83;;;8.05;;
23185;SDS011;11761;51.324;4.590;2022-12-10T06:56:47;36.70;;;8.68;;
23185;SDS011;11761;51.324;4.590;2022-12-10T06:59:13;38.95;;;9.73;;
23185;SDS011;11761;51.324;4.590;2022-12-10T07:01:40;44.60;;;10.98;;
23185;SDS011;11761;51.324;4.590;2022-12-10T07:04:06;39.90;;;9.10;;
23185;SDS011;11761;51.324;4.590;2022-12-10T07:06:33;39.33;;;9.13;;
23185;SDS011;11761;51.324;4.590;2022-12-10T07:09:00;43.95;;;9.20;;
23185;SDS011;11761;51.324;4.590;2022-12-10T07:11:26;39.92;;;8.15;;
23185;SDS011;11761;51.324;4.590;2022-12-10T07:13:52;39.15;;;9.13;;
23185;SDS011;11761;51.324;4.590;2022-12-10T07:16:22;40.45;;;10.10;;
23185;SDS011;11761;51.324;4.590;2022-12-10T07:18:54;32.72;;;9.07;;
23185;SDS011;11761;51.324;4.590;2022-12-10T07:23:50;31.58;;;8.27;;
23185;SDS011;11761;51.324;4.590;2022-12-10T07:26:19;35.28;;;9.00;;
23185;SDS011;11761;51.324;4.590;2022-12-10T07:28:45;33.58;;;9.40;;
23185;SDS011;11761;51.324;4.590;2022-12-10T07:31:11;38.75;;;10.40;;
23185;SDS011;11761;51.324;4.590;2022-12-10T07:33:38;48.38;;;10.00;;
23185;SDS011;11761;51.324;4.590;2022-12-10T07:36:05;37.88;;;9.88;;
23185;SDS011;11761;51.324;4.590;2022-12-10T07:38:33;36.10;;;8.25;;
23185;SDS011;11761;51.324;4.590;2022-12-10T07:41:03;42.38;;;8.82;;
23185;SDS011;11761;51.324;4.590;2022-12-10T07:43:35;33.03;;;9.50;;
23185;SDS011;11761;51.324;4.590;2022-12-10T07:46:03;39.35;;;11.07;;
23185;SDS011;11761;51.324;4.590;2022-12-10T07:48:31;29.00;;;9.98;;
23185;SDS011;11761;51.324;4.590;2022-12-10T07:50:58;33.80;;;9.13;;
23185;SDS011;11761;51.324;4.590;2022-12-10T07:53:24;40.58;;;9.80;;
23185;SDS011;11761;51.324;4.590;2022-12-10T07:55:50;35.28;;;8.38;;
23185;SDS011;11761;51.324;4.590;2022-12-10T07:58:17;40.53;;;9.43;;
23185;SDS011;11761;51.324;4.590;2022-12-10T08:00:43;32.35;;;10.30;;
23185;SDS011;11761;51.324;4.590;2022-12-10T08:03:09;27.88;;;9.07;;
23185;SDS011;11761;51.324;4.590;2022-12-10T08:05:36;39.65;;;10.13;;
23185;SDS011;11761;51.324;4.590;2022-12-10T08:08:04;41.30;;;13.23;;
23185;SDS011;11761;51.324;4.590;2022-12-10T08:10:33;37.85;;;9.82;;
23185;SDS011;11761;51.324;4.590;2022-12-10T08:13:00;39.85;;;10.00;;
23185;SDS011;11761;51.324;4.590;2022-12-10T08:15:26;45.50;;;9.32;;
23185;SDS011;11761;51.324;4.590;2022-12-10T08:17:54;51.53;;;11.25;;
23185;SDS011;11761;51.324;4.590;2022-12-10T08:20:21;38.25;;;9.13;;
23185;SDS011;11761;51.324;4.590;2022-12-10T08:22:47;36.60;;;10.40;;
23185;SDS011;11761;51.324;4.590;2022-12-10T08:25:13;39.47;;;10.68;;
23185;SDS011;11761;51.324;4.590;2022-12-10T08:27:40;39.95;;;9.85;;
23185;SDS011;11761;51.324;4.590;2022-12-10T08:30:06;39.90;;;9.80;;
23185;SDS011;11761;51.324;4.590;2022-12-10T08:32:33;35.88;;;11.68;;
23185;SDS011;11761;51.324;4.590;2022-12-10T08:34:59;28.20;;;10.65;;
23185;SDS011;11761;51.324;4.590;2022-12-10T08:37:25;46.17;;;11.07;;
23185;SDS011;11761;51.324;4.590;2022-12-10T08:39:52;45.70;;;11.20;;
23185;SDS011;11761;51.324;4.590;2022-12-10T08:42:18;37.13;;;10.65;;
23185;SDS011;11761;51.324;4.590;2022-12-10T08:44:44;31.75;;;9.00;;
23185;SDS011;11761;51.324;4.590;2022-12-10T08:47:10;30.40;;;9.55;;
23185;SDS011;11761;51.324;4.590;2022-12-10T08:49:36;40.97;;;10.20;;
23185;SDS011;11761;51.324;4.590;2022-12-10T08:52:02;40.05;;;8.95;;
23185;SDS011;11761;51.324;4.590;2022-12-10T08:54:29;41.15;;;9.27;;
23185;SDS011;11761;51.324;4.590;2022-12-10T08:56:55;42.92;;;12.25;;
23185;SDS011;11761;51.324;4.590;2022-12-10T08:59:21;35.63;;;9.13;;
23185;SDS011;11761;51.324;4.590;2022-12-10T09:01:47;34.05;;;10.10;;
23185;SDS011;11761;51.324;4.590;2022-12-10T09:04:13;34.80;;;9.55;;
23185;SDS011;11761;51.324;4.590;2022-12-10T09:06:41;34.63;;;10.40;;
23185;SDS011;11761;51.324;4.590;2022-12-10T09:09:07;39.08;;;8.57;;
23185;SDS011;11761;51.324;4.590;2022-12-10T09:11:33;30.65;;;9.57;;
23185;SDS011;11761;51.324;4.590;2022-12-10T09:14:00;38.85;;;10.30;;
23185;SDS011;11761;51.324;4.590;2022-12-10T09:16:27;32.55;;;8.68;;
23185;SDS011;11761;51.324;4.590;2022-12-10T09:18:58;41.53;;;9.23;;
23185;SDS011;11761;51.324;4.590;2022-12-10T09:21:25;40.05;;;10.40;;
23185;SDS011;11761;51.324;4.590;2022-12-10T09:23:51;34.17;;;8.95;;
23185;SDS011;11761;51.324;4.590;2022-12-10T09:26:18;34.00;;;9.48;;
23185;SDS011;11761;51.324;4.590;2022-12-10T09:28:46;80.50;;;24.08;;
23185;SDS011;11761;51.324;4.590;2022-12-10T09:31:13;39.55;;;10.70;;
23185;SDS011;11761;51.324;4.590;2022-12-10T09:33:41;39.20;;;10.43;;
23185;SDS011;11761;51.324;4.590;2022-12-10T09:36:07;36.95;;;8.82;;
23185;SDS011;11761;51.324;4.590;2022-12-10T09:38:35;35.47;;;9.27;;
23185;SDS011;11761;51.324;4.590;2022-12-10T09:41:05;39.95;;;11.25;;
23185;SDS011;11761;51.324;4.590;2022-12-10T09:46:12;43.70;;;9.55;;
23185;SDS011;11761;51.324;4.590;2022-12-10T09:51:25;49.50;;;12.50;;
23185;SDS011;11761;51.324;4.590;2022-12-10T09:53:56;49.10;;;12.45;;
23185;SDS011;11761;51.324;4.590;2022-12-10T09:56:34;41.08;;;10.32;;
23185;SDS011;11761;51.324;4.590;2022-12-10T09:59:03;41.08;;;10.77;;
23185;SDS011;11761;51.324;4.590;2022-12-10T10:01:41;42.50;;;11.38;;
23185;SDS011;11761;51.324;4.590;2022-12-10T10:04:09;45.78;;;10.55;;
23185;SDS011;11761;51.324;4.590;2022-12-10T10:06:35;53.33;;;12.02;;
23185;SDS011;11761;51.324;4.590;2022-12-10T10:09:02;32.78;;;10.68;;
23185;SDS011;11761;51.324;4.590;2022-12-10T10:11:31;45.58;;;10.55;;
23185;SDS011;11761;51.324;4.590;2022-12-10T10:14:17;40.35;;;10.18;;
23185;SDS011;11761;51.324;4.590;2022-12-10T10:16:53;28.55;;;8.32;;
23185;SDS011;11761;51.324;4.590;2022-12-10T10:19:30;33.35;;;9.45;;
23185;SDS011;11761;51.324;4.590;2022-12-10T10:22:03;36.83;;;10.30;;
23185;SDS011;11761;51.324;4.590;2022-12-10T10:25:03;36.08;;;10.38;;
23185;SDS011;11761;51.324;4.590;2022-12-10T10:27:24;25.63;;;8.02;;
23185;SDS011;11761;51.324;4.590;2022-12-10T10:29:54;51.85;;;10.15;;
23185;SDS011;11761;51.324;4.590;2022-12-10T10:32:43;42.47;;;10.75;;
23185;SDS011;11761;51.324;4.590;2022-12-10T10:35:23;40.53;;;10.85;;
23185;SDS011;11761;51.324;4.590;2022-12-10T10:37:52;36.88;;;8.93;;
23185;SDS011;11761;51.324;4.590;2022-12-10T10:43:25;46.95;;;9.63;;
23185;SDS011;11761;51.324;4.590;2022-12-10T10:46:02;41.17;;;10.02;;
23185;SDS011;11761;51.324;4.590;2022-12-10T10:48:31;36.45;;;9.32;;
23185;SDS011;11761;51.324;4.590;2022-12-10T10:58:46;43.58;;;10.65;;
23185;SDS011;11761;51.324;4.590;2022-12-10T11:04:14;32.30;;;10.00;;
23185;SDS011;11761;51.324;4.590;2022-12-10T11:06:42;36.17;;;9.90;;
23185;SDS011;11761;51.324;4.590;2022-12-10T11:09:15;34.70;;;9.70;;
23185;SDS011;11761;51.324;4.590;2022-12-10T11:11:49;33.17;;;9.30;;
23185;SDS011;11761;51.324;4.590;2022-12-10T11:14:29;40.13;;;10.48;;
23185;SDS011;11761;51.324;4.590;2022-12-10T11:17:01;50.85;;;12.35;;
23185;SDS011;11761;51.324;4.590;2022-12-10T11:19:28;44.70;;;11.02;;
23185;SDS011;11761;51.324;4.590;2022-12-10T11:21:54;39.08;;;12.15;;
23185;SDS011;11761;51.324;4.590;2022-12-10T11:24:20;48.00;;;11.88;;
23185;SDS011;11761;51.324;4.590;2022-12-10T11:26:49;32.28;;;11.55;;
23185;SDS011;11761;51.324;4.590;2022-12-10T11:37:29;44.40;;;11.90;;
23185;SDS011;11761;51.324;4.590;2022-12-10T11:51:00;44.13;;;11.75;;
23185;SDS011;11761;51.324;4.590;2022-12-10T11:56:34;39.90;;;11.15;;
23185;SDS011;11761;51.324;4.590;2022-12-10T12:14:55;33.15;;;12.27;;
23185;SDS011;11761;51.324;4.590;2022-12-10T12:19:59;38.60;;;10.70;;
23185;SDS011;11761;51.324;4.590;2022-12-10T12:22:34;29.27;;;10.45;;
23185;SDS011;11761;51.324;4.590;2022-12-10T12:25:20;53.17;;;12.82;;
23185;SDS011;11761;51.324;4.590;2022-12-10T12:27:52;39.90;;;10.30;;
23185;SDS011;11761;51.324;4.590;2022-12-10T12:30:43;43.90;;;12.15;;
23185;SDS011;11761;51.324;4.590;2022-12-10T12:33:13;45.47;;;14.63;;
23185;SDS011;11761;51.324;4.590;2022-12-10T12:35:52;35.65;;;11.50;;
23185;SDS011;11761;51.324;4.590;2022-12-10T12:44:13;37.85;;;10.95;;
23185;SDS011;11761;51.324;4.590;2022-12-10T12:46:47;34.08;;;11.65;;
23185;SDS011;11761;51.324;4.590;2022-12-10T12:54:48;56.03;;;18.50;;
23185;SDS011;11761;51.324;4.590;2022-12-10T12:57:21;48.42;;;17.65;;
23185;SDS011;11761;51.324;4.590;2022-12-10T12:59:57;91.47;;;31.77;;
23185;SDS011;11761;51.324;4.590;2022-12-10T13:05:28;60.40;;;24.80;;
23185;SDS011;11761;51.324;4.590;2022-12-10T13:10:52;47.63;;;15.88;;
23185;SDS011;11761;51.324;4.590;2022-12-10T13:13:38;46.20;;;11.60;;
23185;SDS011;11761;51.324;4.590;2022-12-10T13:24:22;42.72;;;11.88;;
23185;SDS011;11761;51.324;4.590;2022-12-10T13:32:19;35.45;;;12.50;;
23185;SDS011;11761;51.324;4.590;2022-12-10T13:42:59;44.22;;;15.70;;
23185;SDS011;11761;51.324;4.590;2022-12-10T13:49:00;50.60;;;15.05;;
23185;SDS011;11761;51.324;4.590;2022-12-10T13:51:35;36.95;;;11.38;;
23185;SDS011;11761;51.324;4.590;2022-12-10T13:54:29;45.13;;;12.20;;
23185;SDS011;11761;51.324;4.590;2022-12-10T14:00:08;43.15;;;12.20;;
23185;SDS011;11761;51.324;4.590;2022-12-10T14:08:25;47.22;;;13.38;;
23185;SDS011;11761;51.324;4.590;2022-12-10T14:10:54;44.22;;;12.18;;
23185;SDS011;11761;51.324;4.590;2022-12-10T14:13:30;36.53;;;11.77;;
23185;SDS011;11761;51.324;4.590;2022-12-10T14:16:01;37.90;;;10.77;;
23185;SDS011;11761;51.324;4.590;2022-12-10T14:18:29;40.28;;;11.60;;
23185;SDS011;11761;51.324;4.590;2022-12-10T14:20:56;49.95;;;17.70;;
23185;SDS011;11761;51.324;4.590;2022-12-10T14:23:30;43.58;;;12.68;;
23185;SDS011;11761;51.324;4.590;2022-12-10T14:26:04;33.22;;;10.40;;
23185;SDS011;11761;51.324;4.590;2022-12-10T14:28:41;38.88;;;11.20;;
23185;SDS011;11761;51.324;4.590;2022-12-10T14:31:24;30.92;;;10.98;;
23185;SDS011;11761;51.324;4.590;2022-12-10T14:33:55;39.10;;;11.27;;
23185;SDS011;11761;51.324;4.590;2022-12-10T14:36:27;37.95;;;13.18;;
23185;SDS011;11761;51.324;4.590;2022-12-10T14:38:56;40.40;;;11.32;;
23185;SDS011;11761;51.324;4.590;2022-12-10T14:41:22;36.92;;;11.20;;
23185;SDS011;11761;51.324;4.590;2022-12-10T14:43:51;39.80;;;13.63;;
23185;SDS011;11761;51.324;4.590;2022-12-10T14:46:20;36.30;;;12.80;;
23185;SDS011;11761;51.324;4.590;2022-12-10T14:48:51;36.63;;;13.15;;
23185;SDS011;11761;51.324;4.590;2022-12-10T14:51:23;43.42;;;12.00;;
23185;SDS011;11761;51.324;4.590;2022-12-10T14:53:52;49.08;;;17.48;;
23185;SDS011;11761;51.324;4.590;2022-12-10T14:56:21;38.13;;;13.50;;
23185;SDS011;11761;51.324;4.590;2022-12-10T14:58:54;44.78;;;15.13;;
23185;SDS011;11761;51.324;4.590;2022-12-10T15:01:43;37.42;;;13.05;;
23185;SDS011;11761;51.324;4.590;2022-12-10T15:04:16;37.70;;;12.02;;
23185;SDS011;11761;51.324;4.590;2022-12-10T15:06:44;42.83;;;14.10;;
23185;SDS011;11761;51.324;4.590;2022-12-10T15:09:16;39.08;;;11.15;;
23185;SDS011;11761;51.324;4.590;2022-12-10T15:11:57;31.38;;;10.85;;
23185;SDS011;11761;51.324;4.590;2022-12-10T15:14:25;43.55;;;12.02;;
23185;SDS011;11761;51.324;4.590;2022-12-10T15:16:54;34.55;;;11.45;;
23185;SDS011;11761;51.324;4.590;2022-12-10T15:24:45;41.13;;;11.82;;
23185;SDS011;11761;51.324;4.590;2022-12-10T15:27:16;41.25;;;13.02;;
23185;SDS011;11761;51.324;4.590;2022-12-10T15:29:42;28.98;;;11.38;;
23185;SDS011;11761;51.324;4.590;2022-12-10T15:32:13;52.83;;;16.33;;
23185;SDS011;11761;51.324;4.590;2022-12-10T15:34:45;30.50;;;10.57;;
23185;SDS011;11761;51.324;4.590;2022-12-10T15:37:21;42.78;;;12.05;;
23185;SDS011;11761;51.324;4.590;2022-12-10T15:39:53;36.47;;;11.68;;
23185;SDS011;11761;51.324;4.590;2022-12-10T15:45:08;41.60;;;12.30;;
23185;SDS011;11761;51.324;4.590;2022-12-10T15:47:59;37.38;;;12.02;;
23185;SDS011;11761;51.324;4.590;2022-12-10T15:50:25;38.78;;;11.02;;
23185;SDS011;11761;51.324;4.590;2022-12-10T15:52:52;34.90;;;10.82;;
23185;SDS011;11761;51.324;4.590;2022-12-10T15:55:18;32.10;;;12.05;;
23185;SDS011;11761;51.324;4.590;2022-12-10T15:57:44;36.60;;;11.80;;
23185;SDS011;11761;51.324;4.590;2022-12-10T16:00:18;37.10;;;12.93;;
23185;SDS011;11761;51.324;4.590;2022-12-10T16:05:19;45.28;;;13.05;;
23185;SDS011;11761;51.324;4.590;2022-12-10T16:07:47;42.88;;;14.60;;
23185;SDS011;11761;51.324;4.590;2022-12-10T16:10:15;62.42;;;18.58;;
23185;SDS011;11761;51.324;4.590;2022-12-10T16:12:43;45.38;;;14.10;;
23185;SDS011;11761;51.324;4.590;2022-12-10T16:15:15;46.35;;;15.80;;
23185;SDS011;11761;51.324;4.590;2022-12-10T16:17:45;51.60;;;14.73;;
23185;SDS011;11761;51.324;4.590;2022-12-10T16:22:37;45.33;;;15.95;;
23185;SDS011;11761;51.324;4.590;2022-12-10T16:25:04;55.28;;;17.80;;
23185;SDS011;11761;51.324;4.590;2022-12-10T16:27:30;52.15;;;17.05;;
23185;SDS011;11761;51.324;4.590;2022-12-10T16:29:58;48.40;;;16.90;;
23185;SDS011;11761;51.324;4.590;2022-12-10T16:32:24;45.25;;;15.63;;
23185;SDS011;11761;51.324;4.590;2022-12-10T16:34:50;46.90;;;15.05;;
23185;SDS011;11761;51.324;4.590;2022-12-10T16:37:17;52.20;;;14.07;;
23185;SDS011;11761;51.324;4.590;2022-12-10T16:39:43;43.60;;;15.27;;
23185;SDS011;11761;51.324;4.590;2022-12-10T16:42:10;39.33;;;13.93;;
23185;SDS011;11761;51.324;4.590;2022-12-10T16:44:37;42.10;;;13.55;;
23185;SDS011;11761;51.324;4.590;2022-12-10T16:47:12;42.75;;;14.50;;
23185;SDS011;11761;51.324;4.590;2022-12-10T16:49:39;50.67;;;12.57;;
23185;SDS011;11761;51.324;4.590;2022-12-10T16:52:05;44.20;;;14.48;;
23185;SDS011;11761;51.324;4.590;2022-12-10T16:54:31;45.63;;;15.32;;
23185;SDS011;11761;51.324;4.590;2022-12-10T16:56:57;35.65;;;13.50;;
23185;SDS011;11761;51.324;4.590;2022-12-10T16:59:23;44.60;;;13.60;;
23185;SDS011;11761;51.324;4.590;2022-12-10T17:01:49;35.13;;;12.15;;
23185;SDS011;11761;51.324;4.590;2022-12-10T17:04:15;34.72;;;12.77;;
23185;SDS011;11761;51.324;4.590;2022-12-10T17:06:41;31.17;;;11.10;;
23185;SDS011;11761;51.324;4.590;2022-12-10T17:09:07;38.85;;;11.98;;